Weather at Riverside Municipal Airport

Public forecast

Using degrees Fahrenheit for public forecast. Weather courtesy of forecast.io.

Current aviation weather report (METAR) for Riverside Municipal Airport

2024/07/21 16:53 (retrieved 31 minutes ago)

KRAL 211653Z VRB04KT 10SM CLR 27/14 A2991 RMK AO2 SLP113 T02720144

Closest aviation forecast (TAF) to Riverside Municipal Airport

Closest forecast is Ontario International Airport, 10.0 nm (18.5 km) NW.

2024/07/21 12:27 (retrieved 5 hours ago)

TAF KONT 211124Z 2112/2218 VRB04KT P6SM SKC FM211800 25009KT P6SM FEW200 FM212000 26011G21KT P6SM SCT250 FM220300 26010KT P6SM SCT250 FM220500 VRB04KT P6SM SKC